createdAt,value
2018-06-21T00:02:03.448Z,8.30
2018-06-21T00:04:30.453Z,7.80
2018-06-21T00:06:57.506Z,8.63
2018-06-21T00:09:24.657Z,8.10
2018-06-21T00:11:51.599Z,7.40
2018-06-21T00:14:18.653Z,7.82
2018-06-21T00:16:45.695Z,8.00
2018-06-21T00:19:12.647Z,7.90
2018-06-21T00:21:39.690Z,8.13
2018-06-21T00:24:06.740Z,7.32
2018-06-21T00:26:33.893Z,7.93
2018-06-21T00:29:01.040Z,8.30
2018-06-21T00:31:28.095Z,8.35
2018-06-21T00:33:55.344Z,7.82
2018-06-21T00:36:22.397Z,8.13
2018-06-21T00:38:49.439Z,8.00
2018-06-21T00:41:16.490Z,7.85
2018-06-21T00:43:43.483Z,8.20
2018-06-21T00:46:10.483Z,7.80
2018-06-21T00:48:37.538Z,7.65
2018-06-21T00:51:04.585Z,8.63
2018-06-21T00:53:31.637Z,8.35
2018-06-21T00:56:04.723Z,8.68
2018-06-21T00:58:31.770Z,8.57
2018-06-21T01:00:59.229Z,8.10
2018-06-21T01:03:26.281Z,8.15
2018-06-21T01:05:53.323Z,9.23
2018-06-21T01:08:20.279Z,9.40
2018-06-21T01:10:48.240Z,7.90
2018-06-21T01:13:15.289Z,9.60
2018-06-21T01:15:42.342Z,9.43
2018-06-21T01:18:10.208Z,10.25
2018-06-21T01:20:37.152Z,9.02
2018-06-21T01:23:04.103Z,9.18
2018-06-21T01:25:31.575Z,10.05
2018-06-21T01:27:58.604Z,9.60
2018-06-21T01:30:25.652Z,10.43
2018-06-21T01:32:52.708Z,9.85
2018-06-21T01:35:19.751Z,9.40
2018-06-21T01:37:46.800Z,9.30
2018-06-21T01:40:13.789Z,9.20
2018-06-21T01:42:40.794Z,9.93
2018-06-21T01:45:07.847Z,9.93
2018-06-21T01:47:34.891Z,10.50
2018-06-21T01:50:01.943Z,10.38
2018-06-21T01:52:28.885Z,9.82
2018-06-21T01:54:55.939Z,10.30
2018-06-21T01:57:22.922Z,9.95
2018-06-21T01:59:49.928Z,10.40
2018-06-21T02:02:16.983Z,9.20
2018-06-21T02:04:44.031Z,10.23
2018-06-21T02:07:11.079Z,9.82
2018-06-21T02:09:38.130Z,10.07
2018-06-21T02:12:05.173Z,10.77
2018-06-21T02:14:32.170Z,12.00
2018-06-21T02:16:59.168Z,11.82
2018-06-21T02:19:26.216Z,11.90
2018-06-21T02:21:53.270Z,11.60
2018-06-21T02:24:20.314Z,11.23
2018-06-21T02:26:48.385Z,11.30
2018-06-21T02:29:15.387Z,11.75
2018-06-21T02:31:42.381Z,11.73
2018-06-21T02:34:09.449Z,12.68
2018-06-21T02:36:38.975Z,13.52
2018-06-21T02:39:05.937Z,14.32
2018-06-21T02:41:33.750Z,13.10
2018-06-21T02:44:00.797Z,12.82
2018-06-21T02:46:27.852Z,17.23
2018-06-21T02:48:55.310Z,17.02
2018-06-21T02:51:22.355Z,17.50
2018-06-21T02:53:49.349Z,19.42
2018-06-21T02:56:16.808Z,19.17
2018-06-21T02:58:43.750Z,18.92
2018-06-21T03:01:10.759Z,17.27
2018-06-21T03:03:38.111Z,16.98
2018-06-21T03:06:05.159Z,19.42
2018-06-21T03:08:32.212Z,20.23
2018-06-21T03:11:00.381Z,20.90
2018-06-21T03:13:27.437Z,19.50
2018-06-21T03:15:54.422Z,20.02
2018-06-21T03:18:21.430Z,20.92
2018-06-21T03:20:48.473Z,21.55
2018-06-21T03:26:13.296Z,18.87
2018-06-21T03:28:40.339Z,19.60
2018-06-21T03:31:07.388Z,18.95
2018-06-21T03:33:34.442Z,18.33
2018-06-21T03:36:01.485Z,19.37
2018-06-21T03:38:28.538Z,19.30
2018-06-21T03:40:55.685Z,18.80
2018-06-21T03:43:22.837Z,19.05
2018-06-21T03:45:49.895Z,18.08
2018-06-21T03:48:16.937Z,20.12
2018-06-21T03:50:43.984Z,19.90
2018-06-21T03:53:11.038Z,19.35
2018-06-21T03:55:38.084Z,17.67
2018-06-21T03:58:05.132Z,18.20
2018-06-21T04:00:32.183Z,18.27
2018-06-21T04:02:59.226Z,18.33
2018-06-21T04:05:26.341Z,18.60
2018-06-21T04:07:53.327Z,18.60
2018-06-21T04:10:20.370Z,17.90
2018-06-21T04:12:47.423Z,16.90
2018-06-21T04:15:14.571Z,17.58
2018-06-21T04:17:41.517Z,17.05
2018-06-21T04:20:08.517Z,16.35
2018-06-21T04:22:35.511Z,16.70
2018-06-21T04:25:05.019Z,16.48
2018-06-21T04:27:32.072Z,16.50
2018-06-21T04:29:59.530Z,16.42
2018-06-21T04:32:26.606Z,16.17
2018-06-21T04:34:53.621Z,15.85
2018-06-21T04:37:21.022Z,16.27
2018-06-21T04:39:48.030Z,15.20
2018-06-21T04:42:15.073Z,15.38
2018-06-21T04:44:42.128Z,16.20
2018-06-21T04:47:09.171Z,14.18
2018-06-21T04:49:37.140Z,16.02
2018-06-21T04:52:04.198Z,15.20
2018-06-21T04:54:31.653Z,14.57
2018-06-21T04:56:59.726Z,13.95
2018-06-21T04:59:26.906Z,14.87
2018-06-21T05:01:54.228Z,14.73
2018-06-21T05:04:21.277Z,14.68
2018-06-21T05:06:48.331Z,14.90
2018-06-21T05:09:15.374Z,14.63
2018-06-21T05:11:42.421Z,14.38
2018-06-21T05:14:09.367Z,14.13
2018-06-21T05:16:36.417Z,13.55
2018-06-21T05:19:03.570Z,14.00
2018-06-21T05:21:30.621Z,13.10
2018-06-21T05:23:57.665Z,12.32
2018-06-21T05:26:24.715Z,13.85
2018-06-21T05:28:52.786Z,13.52
2018-06-21T05:31:19.937Z,13.62
2018-06-21T05:33:47.088Z,13.65
2018-06-21T05:36:14.143Z,13.70
2018-06-21T05:38:41.185Z,13.50
2018-06-21T05:41:08.139Z,13.57
2018-06-21T05:43:35.124Z,13.32
2018-06-21T05:46:02.025Z,12.88
2018-06-21T05:48:29.074Z,12.68
2018-06-21T05:50:56.130Z,12.45
2018-06-21T05:53:23.170Z,13.30
2018-06-21T05:55:50.221Z,13.05
2018-06-21T05:58:17.272Z,11.90
2018-06-21T06:00:44.213Z,12.27
2018-06-21T06:03:11.268Z,13.38
2018-06-21T06:05:38.310Z,13.10
2018-06-21T06:08:05.358Z,13.27
2018-06-21T06:10:33.229Z,13.85
2018-06-21T06:13:00.276Z,13.02
2018-06-21T06:15:27.331Z,13.10
2018-06-21T06:17:56.115Z,13.55
2018-06-21T06:20:23.168Z,13.35
2018-06-21T06:22:50.212Z,14.43
2018-06-21T06:25:17.211Z,13.62
2018-06-21T06:27:44.208Z,12.75
2018-06-21T06:30:11.255Z,14.32
2018-06-21T06:32:39.126Z,12.52
2018-06-21T06:35:06.182Z,13.70
2018-06-21T06:37:33.227Z,14.05
2018-06-21T06:40:00.220Z,10.85
2018-06-21T06:42:27.982Z,12.10
2018-06-21T06:44:54.986Z,12.15
2018-06-21T06:47:22.032Z,12.75
2018-06-21T06:49:49.081Z,12.57
2018-06-21T06:52:16.131Z,11.12
2018-06-21T06:54:43.197Z,11.10
2018-06-21T06:57:10.940Z,10.75
2018-06-21T06:59:37.931Z,10.95
2018-06-21T07:02:05.754Z,11.77
2018-06-21T07:04:32.807Z,13.05
2018-06-21T07:06:59.852Z,12.65
2018-06-21T07:09:26.900Z,12.95
2018-06-21T07:11:53.954Z,12.07
2018-06-21T07:14:20.964Z,12.52
2018-06-21T07:16:47.953Z,12.68
2018-06-21T07:19:14.995Z,12.43
2018-06-21T07:21:42.041Z,11.80
2018-06-21T07:24:09.192Z,13.20
2018-06-21T07:26:36.342Z,12.00
2018-06-21T07:29:03.396Z,12.40
2018-06-21T07:31:30.440Z,12.70
2018-06-21T07:33:57.490Z,12.52
2018-06-21T07:36:24.438Z,11.75
2018-06-21T07:38:51.508Z,11.02
2018-06-21T07:41:18.538Z,10.70
2018-06-21T07:43:45.579Z,11.32
2018-06-21T07:46:12.629Z,12.13
2018-06-21T07:48:39.685Z,12.00
2018-06-21T07:51:06.726Z,11.77
2018-06-21T07:53:33.774Z,11.07
2018-06-21T07:56:01.075Z,11.48
2018-06-21T07:58:28.075Z,10.88
2018-06-21T08:00:55.130Z,10.18
2018-06-21T08:03:23.096Z,10.90
2018-06-21T08:05:50.147Z,10.50
2018-06-21T08:08:17.197Z,11.30
2018-06-21T08:10:44.550Z,10.75
2018-06-21T08:13:12.520Z,10.48
2018-06-21T08:15:39.571Z,11.00
2018-06-21T08:18:07.537Z,13.23
2018-06-21T08:20:34.585Z,11.38
2018-06-21T08:23:01.642Z,11.80
2018-06-21T08:25:29.195Z,11.43
2018-06-21T08:27:56.247Z,12.95
2018-06-21T08:30:23.292Z,12.52
2018-06-21T08:32:50.341Z,12.63
2018-06-21T08:35:17.333Z,10.10
2018-06-21T08:37:44.441Z,13.27
2018-06-21T08:40:11.486Z,12.60
2018-06-21T08:42:38.541Z,12.45
2018-06-21T08:45:05.584Z,12.75
2018-06-21T08:47:32.681Z,13.40
2018-06-21T08:49:59.624Z,13.43
2018-06-21T08:52:26.628Z,12.40
2018-06-21T08:54:53.681Z,14.77
2018-06-21T08:57:20.726Z,13.15
2018-06-21T08:59:47.875Z,13.82
2018-06-21T09:02:14.923Z,13.00
2018-06-21T09:04:41.870Z,12.35
2018-06-21T09:07:08.919Z,11.73
2018-06-21T09:09:35.983Z,12.90
2018-06-21T09:12:03.015Z,7.55
2018-06-21T09:14:29.965Z,7.60
2018-06-21T09:16:57.012Z,7.95
2018-06-21T09:19:24.005Z,9.32
2018-06-21T09:21:51.004Z,9.40
2018-06-21T09:24:17.960Z,7.55
2018-06-21T09:26:45.000Z,8.07
2018-06-21T09:29:12.597Z,8.13
2018-06-21T09:31:39.611Z,8.20
2018-06-21T09:34:06.648Z,7.32
2018-06-21T09:36:33.914Z,7.87
2018-06-21T09:39:16.630Z,7.90
2018-06-21T09:42:01.569Z,7.25
2018-06-21T09:44:28.590Z,7.45
2018-06-21T09:47:12.286Z,6.70
2018-06-21T09:49:39.432Z,7.72
2018-06-21T09:52:06.481Z,7.62
2018-06-21T09:54:33.537Z,7.22
2018-06-21T09:57:00.479Z,7.32
2018-06-21T09:59:27.528Z,7.55
2018-06-21T10:01:54.570Z,7.55
2018-06-21T10:04:21.624Z,7.43
2018-06-21T10:06:48.571Z,8.38
2018-06-21T10:09:15.718Z,7.82
2018-06-21T10:11:42.869Z,8.68
2018-06-21T10:14:09.918Z,7.80
2018-06-21T10:16:36.971Z,8.60
2018-06-21T10:19:03.956Z,9.23
2018-06-21T10:21:31.164Z,9.93
2018-06-21T10:23:58.315Z,9.27
2018-06-21T10:26:25.266Z,8.00
2018-06-21T10:28:52.254Z,7.10
2018-06-21T10:31:19.974Z,6.72
2018-06-21T10:33:48.147Z,6.07
2018-06-21T10:36:15.197Z,6.15
2018-06-21T10:38:42.143Z,6.20
2018-06-21T10:41:09.191Z,6.57
2018-06-21T10:43:37.115Z,6.20
2018-06-21T10:46:04.159Z,6.40
2018-06-21T10:48:31.263Z,5.60
2018-06-21T10:50:58.411Z,5.82
2018-06-21T10:53:25.461Z,6.43
2018-06-21T10:55:52.504Z,6.57
2018-06-21T10:58:19.555Z,7.43
2018-06-21T11:00:46.916Z,6.97
2018-06-21T11:03:14.100Z,7.12
2018-06-21T11:05:41.314Z,7.62
2018-06-21T11:08:08.367Z,7.35
2018-06-21T11:10:35.411Z,7.57
2018-06-21T11:13:03.482Z,7.20
2018-06-21T11:15:30.531Z,8.20
2018-06-21T11:17:57.585Z,7.10
2018-06-21T11:20:25.659Z,7.20
2018-06-21T11:22:52.807Z,7.37
2018-06-21T11:25:21.335Z,6.62
2018-06-21T11:27:48.365Z,6.82
2018-06-21T11:30:15.325Z,6.70
2018-06-21T11:32:42.226Z,6.03
2018-06-21T11:35:09.374Z,6.68
2018-06-21T11:37:36.424Z,6.37
2018-06-21T11:40:03.574Z,5.85
2018-06-21T11:42:30.724Z,6.00
2018-06-21T11:44:57.779Z,6.82
2018-06-21T11:47:24.720Z,6.43
2018-06-21T11:49:51.667Z,6.25
2018-06-21T11:52:19.982Z,6.60
2018-06-21T11:54:47.197Z,6.53
2018-06-21T11:57:14.247Z,6.18
2018-06-21T11:59:42.420Z,6.15
2018-06-21T12:02:09.469Z,6.57
2018-06-21T12:04:37.543Z,6.43
2018-06-21T12:07:04.691Z,6.25
2018-06-21T12:09:31.639Z,5.50
2018-06-21T12:11:58.794Z,5.90
2018-06-21T12:14:25.838Z,5.87
2018-06-21T12:16:52.891Z,5.60
2018-06-21T12:19:20.042Z,5.85
2018-06-21T12:21:47.292Z,5.70
2018-06-21T12:24:14.344Z,5.65
2018-06-21T12:26:41.591Z,5.85
2018-06-21T12:29:08.647Z,4.87
2018-06-21T12:31:35.590Z,4.95
2018-06-21T12:34:02.742Z,4.78
2018-06-21T12:36:29.792Z,5.00
2018-06-21T12:38:56.837Z,4.85
2018-06-21T12:41:24.147Z,5.20
2018-06-21T12:43:51.143Z,4.95
2018-06-21T12:46:18.294Z,4.62
2018-06-21T12:48:45.338Z,4.65
2018-06-21T12:51:12.491Z,4.68
2018-06-21T12:53:39.535Z,4.70
2018-06-21T12:56:06.590Z,5.03
2018-06-21T12:58:34.759Z,4.40
2018-06-21T13:01:01.704Z,4.70
2018-06-21T13:03:28.752Z,4.62
2018-06-21T13:05:55.699Z,4.35
2018-06-21T13:08:23.661Z,4.40
2018-06-21T13:11:10.788Z,4.32
2018-06-21T13:13:37.842Z,4.78
2018-06-21T13:16:05.194Z,4.43
2018-06-21T13:18:32.242Z,4.37
2018-06-21T13:20:59.185Z,4.28
2018-06-21T13:23:26.235Z,4.50
2018-06-21T13:25:53.387Z,4.47
2018-06-21T13:28:20.439Z,4.97
2018-06-21T13:30:47.483Z,4.65
2018-06-21T13:33:14.741Z,4.55
2018-06-21T13:35:41.989Z,4.18
2018-06-21T13:38:09.141Z,4.18
2018-06-21T13:40:36.126Z,4.40
2018-06-21T13:43:04.176Z,4.57
2018-06-21T13:45:33.115Z,4.20
2018-06-21T13:48:00.199Z,4.45
2018-06-21T13:50:27.355Z,4.20
2018-06-21T13:52:54.546Z,4.37
2018-06-21T13:55:21.555Z,4.35
2018-06-21T13:57:48.599Z,4.45
2018-06-21T14:00:15.648Z,4.53
2018-06-21T14:02:43.015Z,4.15
2018-06-21T14:05:10.051Z,4.07
2018-06-21T14:07:38.148Z,4.15
2018-06-21T14:10:05.172Z,4.18
2018-06-21T14:12:32.122Z,4.90
2018-06-21T14:14:59.270Z,4.70
2018-06-21T14:17:26.320Z,4.25
2018-06-21T14:19:53.514Z,4.35
2018-06-21T14:22:20.723Z,4.50
2018-06-21T14:24:47.872Z,4.28
2018-06-21T14:27:15.228Z,4.35
2018-06-21T14:29:42.173Z,4.70
2018-06-21T14:32:09.222Z,4.45
2018-06-21T14:34:36.477Z,4.40
2018-06-21T14:37:03.534Z,4.90
2018-06-21T14:39:31.500Z,4.45
2018-06-21T14:41:58.543Z,4.75
2018-06-21T14:44:25.594Z,4.53
2018-06-21T14:46:52.845Z,4.97
2018-06-21T14:49:20.458Z,4.87
2018-06-21T14:51:47.454Z,4.53
2018-06-21T14:54:14.606Z,4.97
2018-06-21T14:56:44.496Z,4.72
2018-06-21T14:59:11.471Z,5.28
2018-06-21T15:01:38.516Z,4.60
2018-06-21T15:04:05.570Z,4.60
2018-06-21T15:06:33.944Z,4.65
2018-06-21T15:09:01.021Z,4.82
2018-06-21T15:11:28.039Z,5.25
2018-06-21T15:13:55.298Z,5.85
2018-06-21T15:16:22.343Z,5.00
2018-06-21T15:18:49.493Z,4.75
2018-06-21T15:21:17.059Z,5.15
2018-06-21T15:23:44.317Z,4.30
2018-06-21T15:26:12.761Z,4.60
2018-06-21T15:28:39.836Z,4.62
2018-06-21T15:31:06.987Z,4.90
2018-06-21T15:33:34.242Z,4.97
2018-06-21T15:39:00.800Z,5.28
2018-06-21T15:41:28.720Z,4.70
2018-06-21T15:43:55.717Z,5.03
2018-06-21T15:46:23.077Z,5.07
2018-06-21T15:48:50.131Z,5.12
2018-06-21T15:51:17.476Z,5.18
2018-06-21T15:53:44.464Z,4.50
2018-06-21T15:56:11.472Z,5.18
2018-06-21T15:58:38.729Z,4.87
2018-06-21T16:01:07.419Z,5.10
2018-06-21T16:03:34.460Z,4.82
2018-06-21T16:06:01.512Z,4.78
2018-06-21T16:08:28.657Z,4.95
2018-06-21T16:10:55.809Z,5.00
2018-06-21T16:13:22.897Z,4.80
2018-06-21T16:15:50.102Z,4.70
2018-06-21T16:18:17.264Z,4.57
2018-06-21T16:20:44.319Z,4.30
2018-06-21T16:23:12.473Z,4.45
2018-06-21T16:25:40.918Z,4.78
2018-06-21T16:28:10.490Z,4.57
2018-06-21T16:30:37.941Z,5.03
2018-06-21T16:33:04.949Z,5.30
2018-06-21T16:35:31.935Z,4.60
2018-06-21T16:37:58.981Z,4.75
2018-06-21T16:40:26.173Z,4.62
2018-06-21T16:42:53.586Z,4.62
2018-06-21T16:45:21.660Z,4.95
2018-06-21T16:47:48.923Z,6.15
2018-06-21T16:50:16.473Z,5.80
2018-06-21T16:52:43.727Z,6.15
2018-06-21T16:55:12.235Z,5.93
2018-06-21T16:57:40.737Z,5.80
2018-06-21T17:00:10.739Z,5.07
2018-06-21T17:02:38.014Z,4.87
2018-06-21T17:05:05.933Z,5.07
2018-06-21T17:07:33.108Z,4.18
2018-06-21T17:10:00.277Z,4.75
2018-06-21T17:12:27.590Z,4.87
2018-06-21T17:14:55.258Z,4.82
2018-06-21T17:17:22.408Z,4.90
2018-06-21T17:19:49.453Z,5.07
2018-06-21T17:22:16.434Z,4.93
2018-06-21T17:24:43.556Z,5.10
2018-06-21T17:27:10.597Z,4.82
2018-06-21T17:29:37.749Z,4.95
2018-06-21T17:32:04.897Z,4.68
2018-06-21T17:34:31.947Z,4.32
2018-06-21T17:36:59.051Z,4.82
2018-06-21T17:39:26.156Z,4.70
2018-06-21T17:41:53.654Z,4.80
2018-06-21T17:44:20.762Z,4.90
2018-06-21T17:46:47.912Z,5.00
2018-06-21T17:49:14.952Z,4.70
2018-06-21T17:51:42.002Z,4.72
2018-06-21T17:54:09.196Z,4.85
2018-06-21T17:56:36.304Z,4.70
2018-06-21T17:59:03.358Z,4.72
2018-06-21T18:01:30.956Z,4.87
2018-06-21T18:03:58.063Z,5.30
2018-06-21T18:06:25.117Z,5.37
2018-06-21T18:08:52.161Z,5.35
2018-06-21T18:11:19.237Z,5.55
2018-06-21T18:13:46.463Z,5.40
2018-06-21T18:16:13.614Z,5.75
2018-06-21T18:18:40.764Z,5.70
2018-06-21T18:21:08.837Z,5.70
2018-06-21T18:23:35.885Z,5.57
2018-06-21T18:26:03.343Z,5.75
2018-06-21T18:28:31.627Z,5.45
2018-06-21T18:30:59.228Z,5.50
2018-06-21T18:33:27.561Z,5.20
2018-06-21T18:35:54.615Z,5.57
2018-06-21T18:38:21.965Z,5.47
2018-06-21T18:40:49.324Z,5.95
2018-06-21T18:43:16.780Z,5.80
2018-06-21T18:45:43.834Z,6.50
2018-06-21T18:48:13.798Z,5.87
2018-06-21T18:50:41.659Z,6.00
2018-06-21T18:53:09.712Z,6.12
2018-06-21T18:55:38.601Z,5.93
2018-06-21T18:58:06.855Z,5.93
2018-06-21T19:00:35.872Z,6.05
2018-06-21T19:03:03.951Z,6.60
2018-06-21T19:05:32.649Z,6.32
2018-06-21T19:08:00.957Z,6.60
2018-06-21T19:10:48.695Z,5.57
2018-06-21T19:13:15.872Z,6.15
2018-06-21T19:15:43.639Z,6.22
2018-06-21T19:18:11.746Z,6.70
2018-06-21T19:20:42.026Z,6.40
2018-06-21T19:23:09.391Z,5.97
2018-06-21T19:25:38.990Z,6.40
2018-06-21T19:28:07.278Z,6.30
2018-06-21T19:30:34.639Z,6.47
2018-06-21T19:33:03.695Z,6.30
2018-06-21T19:35:31.017Z,6.40
2018-06-21T19:37:58.031Z,6.43
2018-06-21T19:40:25.899Z,6.40
2018-06-21T19:42:53.126Z,6.72
2018-06-21T19:45:21.702Z,6.80
2018-06-21T19:47:48.892Z,6.90
2018-06-21T19:50:17.269Z,7.50
2018-06-21T19:52:50.465Z,7.18
2018-06-21T19:55:23.189Z,7.70
2018-06-21T19:57:51.045Z,7.15
2018-06-21T20:00:19.608Z,7.53
2018-06-21T20:02:52.390Z,7.43
2018-06-21T20:05:21.774Z,7.00
2018-06-21T20:07:50.596Z,7.85
2018-06-21T20:10:21.409Z,8.35
2018-06-21T20:12:49.782Z,7.97
2018-06-21T20:15:21.773Z,7.57
2018-06-21T20:17:49.621Z,8.45
2018-06-21T20:20:17.931Z,8.18
2018-06-21T20:22:48.023Z,8.75
2018-06-21T20:25:18.242Z,8.20
2018-06-21T20:27:47.702Z,8.45
2018-06-21T20:30:16.744Z,8.13
2018-06-21T20:32:47.141Z,8.63
2018-06-21T20:35:15.932Z,8.77
2018-06-21T20:37:44.368Z,9.57
2018-06-21T20:40:11.798Z,8.90
2018-06-21T20:42:40.430Z,9.35
2018-06-21T20:45:08.486Z,10.02
2018-06-21T20:47:38.652Z,9.07
2018-06-21T20:52:48.539Z,9.93
2018-06-21T20:55:16.045Z,9.32
2018-06-21T20:57:43.358Z,9.10
2018-06-21T21:00:11.432Z,9.38
2018-06-21T21:02:38.489Z,9.23
2018-06-21T21:05:05.327Z,9.50
2018-06-21T21:07:33.498Z,9.30
2018-06-21T21:10:00.751Z,10.07
2018-06-21T21:12:27.800Z,9.63
2018-06-21T21:14:54.854Z,10.02
2018-06-21T21:17:22.512Z,9.70
2018-06-21T21:19:49.560Z,9.45
2018-06-21T21:22:18.043Z,9.73
2018-06-21T21:24:45.301Z,9.70
2018-06-21T21:27:12.346Z,9.65
2018-06-21T21:29:39.393Z,10.27
2018-06-21T21:32:06.446Z,10.50
2018-06-21T21:34:33.491Z,10.35
2018-06-21T21:37:00.539Z,10.50
2018-06-21T21:39:27.594Z,11.18
2018-06-21T21:41:54.637Z,10.40
2018-06-21T21:44:21.684Z,10.80
2018-06-21T21:46:48.739Z,11.00
2018-06-21T21:49:15.782Z,11.00
2018-06-21T21:51:44.372Z,10.88
2018-06-21T21:54:11.359Z,11.40
2018-06-21T21:56:38.510Z,11.57
2018-06-21T21:59:05.868Z,10.43
2018-06-21T22:01:32.816Z,11.20
2018-06-21T22:03:59.818Z,11.05
2018-06-21T22:06:26.885Z,12.45
2018-06-21T22:08:53.913Z,12.32
2018-06-21T22:11:20.961Z,11.75
2018-06-21T22:13:48.014Z,12.45
2018-06-21T22:16:15.931Z,12.15
2018-06-21T22:18:43.237Z,12.20
2018-06-21T22:21:10.261Z,11.93
2018-06-21T22:23:37.330Z,12.13
2018-06-21T22:26:04.384Z,12.85
2018-06-21T22:28:31.436Z,13.05
2018-06-21T22:30:58.480Z,11.98
2018-06-21T22:33:25.529Z,13.20
2018-06-21T22:35:52.575Z,12.65
2018-06-21T22:38:19.621Z,13.05
2018-06-21T22:40:46.674Z,13.20
2018-06-21T22:43:13.665Z,13.30
2018-06-21T22:45:40.670Z,13.00
2018-06-21T22:48:07.714Z,13.88
2018-06-21T22:50:34.812Z,13.10
2018-06-21T22:53:01.816Z,13.55
2018-06-21T22:55:28.859Z,13.27
2018-06-21T22:57:56.431Z,12.90
2018-06-21T23:00:23.472Z,13.77
2018-06-21T23:02:50.473Z,13.68
2018-06-21T23:05:17.464Z,14.05
2018-06-21T23:07:44.513Z,13.38
2018-06-21T23:10:11.970Z,12.95
2018-06-21T23:12:38.956Z,13.15
2018-06-21T23:15:05.969Z,13.48
2018-06-21T23:17:33.022Z,12.95
2018-06-21T23:20:00.078Z,14.15
2018-06-21T23:22:27.062Z,14.20
2018-06-21T23:24:54.061Z,14.02
2018-06-21T23:27:21.112Z,14.87
2018-06-21T23:29:48.160Z,15.27
2018-06-21T23:32:15.203Z,15.57
2018-06-21T23:34:42.253Z,16.52
2018-06-21T23:37:09.308Z,16.27
2018-06-21T23:39:36.352Z,15.90
2018-06-21T23:42:04.325Z,16.30
